createdAt,value
2022-10-28T00:01:03.551Z,5.80
2022-10-28T00:03:54.170Z,5.75
2022-10-28T00:06:43.856Z,6.03
2022-10-28T00:09:32.373Z,5.32
2022-10-28T00:12:20.710Z,5.80
2022-10-28T00:15:09.923Z,6.18
2022-10-28T00:17:58.260Z,5.82
2022-10-28T00:20:46.548Z,5.18
2022-10-28T00:23:36.572Z,5.75
2022-10-28T00:26:26.841Z,5.93
2022-10-28T00:29:16.996Z,5.63
2022-10-28T00:32:05.689Z,5.88
2022-10-28T00:34:54.006Z,5.50
2022-10-28T00:37:42.344Z,6.82
2022-10-28T00:40:36.305Z,6.45
2022-10-28T00:43:35.831Z,5.70
2022-10-28T00:46:30.450Z,6.40
2022-10-28T00:49:24.730Z,5.60
2022-10-28T00:52:19.447Z,5.60
2022-10-28T00:55:09.268Z,5.43
2022-10-28T00:58:00.051Z,6.22
2022-10-28T01:00:48.403Z,5.78
2022-10-28T01:03:38.215Z,6.05
2022-10-28T01:06:28.717Z,5.47
2022-10-28T01:09:17.059Z,5.80
2022-10-28T01:12:13.922Z,5.40
2022-10-28T01:15:13.703Z,6.28
2022-10-28T01:18:12.687Z,6.32
2022-10-28T01:21:36.343Z,6.82
2022-10-28T01:24:41.389Z,6.80
2022-10-28T01:28:02.549Z,7.30
2022-10-28T01:34:10.738Z,6.38
2022-10-28T01:37:04.857Z,7.38
2022-10-28T01:39:57.956Z,5.50
2022-10-28T01:42:50.402Z,6.55
2022-10-28T01:45:43.892Z,6.03
2022-10-28T01:51:36.197Z,6.10
2022-10-28T01:54:30.941Z,6.20
2022-10-28T01:57:19.840Z,5.55
2022-10-28T02:00:10.031Z,6.07
2022-10-28T02:02:58.649Z,5.60
2022-10-28T02:05:50.209Z,5.47
2022-10-28T02:09:01.111Z,5.40
2022-10-28T02:12:04.682Z,6.20
2022-10-28T02:15:18.468Z,6.45
2022-10-28T02:18:26.063Z,6.18
2022-10-28T02:21:21.192Z,6.30
2022-10-28T02:24:16.029Z,7.05
2022-10-28T02:27:10.075Z,6.50
2022-10-28T02:30:05.331Z,6.70
2022-10-28T02:32:57.962Z,6.45
2022-10-28T02:35:49.733Z,6.40
2022-10-28T02:38:43.412Z,6.30
2022-10-28T02:41:38.421Z,7.18
2022-10-28T02:44:29.641Z,5.78
2022-10-28T02:47:21.182Z,6.00
2022-10-28T02:50:15.709Z,5.78
2022-10-28T02:53:11.788Z,7.30
2022-10-28T02:56:04.352Z,5.75
2022-10-28T02:58:52.911Z,7.07
2022-10-28T03:01:41.614Z,5.93
2022-10-28T03:04:30.060Z,6.85
2022-10-28T03:07:18.444Z,6.80
2022-10-28T03:10:07.568Z,6.90
2022-10-28T03:12:57.254Z,7.43
2022-10-28T03:15:45.603Z,7.28
2022-10-28T03:18:33.905Z,7.25
2022-10-28T03:21:22.447Z,6.43
2022-10-28T03:24:10.759Z,7.05
2022-10-28T03:26:59.155Z,6.50
2022-10-28T03:29:48.816Z,6.85
2022-10-28T03:32:37.228Z,6.10
2022-10-28T03:35:26.138Z,6.57
2022-10-28T03:38:14.483Z,6.30
2022-10-28T03:41:02.858Z,6.95
2022-10-28T03:43:51.257Z,6.80
2022-10-28T03:46:40.961Z,6.00
2022-10-28T03:49:29.310Z,6.20
2022-10-28T03:52:17.669Z,7.00
2022-10-28T03:55:06.781Z,6.80
2022-10-28T03:57:55.743Z,7.25
2022-10-28T04:00:44.327Z,7.43
2022-10-28T04:03:34.046Z,7.45
2022-10-28T04:06:22.431Z,7.30
2022-10-28T04:09:10.751Z,8.00
2022-10-28T04:11:59.226Z,7.32
2022-10-28T04:14:47.612Z,8.32
2022-10-28T04:17:36.069Z,7.25
2022-10-28T04:20:26.841Z,7.40
2022-10-28T04:23:16.900Z,7.72
2022-10-28T04:26:05.426Z,7.83
2022-10-28T04:28:53.793Z,7.80
2022-10-28T04:31:42.104Z,7.53
2022-10-28T04:34:30.549Z,8.63
2022-10-28T04:37:20.758Z,7.45
2022-10-28T04:40:10.633Z,7.05
2022-10-28T04:42:58.963Z,7.53
2022-10-28T04:45:47.748Z,10.30
2022-10-28T04:48:36.516Z,9.90
2022-10-28T04:51:24.883Z,13.15
2022-10-28T04:54:14.545Z,11.32
2022-10-28T04:57:03.176Z,9.55
2022-10-28T04:59:51.481Z,8.55
2022-10-28T05:02:45.176Z,6.88
2022-10-28T05:05:34.692Z,6.63
2022-10-28T05:08:23.046Z,6.85
2022-10-28T05:11:12.790Z,7.53
2022-10-28T05:14:01.103Z,7.72
2022-10-28T05:16:49.766Z,7.40
2022-10-28T05:19:38.103Z,7.22
2022-10-28T05:22:26.451Z,7.65
2022-10-28T05:25:15.060Z,7.05
2022-10-28T05:28:04.830Z,8.57
2022-10-28T05:30:53.182Z,9.68
2022-10-28T05:33:41.490Z,8.80
2022-10-28T05:36:29.846Z,8.63
2022-10-28T05:39:18.176Z,8.13
2022-10-28T05:42:06.616Z,8.13
2022-10-28T05:44:56.304Z,6.82
2022-10-28T05:47:45.555Z,6.90
2022-10-28T05:50:33.958Z,6.07
2022-10-28T05:53:22.263Z,6.20
2022-10-28T05:56:10.628Z,6.43
2022-10-28T05:58:59.159Z,6.63
2022-10-28T06:01:51.710Z,6.22
2022-10-28T06:04:40.067Z,7.25
2022-10-28T06:07:30.293Z,6.13
2022-10-28T06:10:18.783Z,7.80
2022-10-28T06:13:05.989Z,7.88
2022-10-28T06:15:55.417Z,7.78
2022-10-28T06:18:45.208Z,9.63
2022-10-28T06:21:33.521Z,10.70
2022-10-28T06:24:21.920Z,9.10
2022-10-28T06:27:10.397Z,8.00
2022-10-28T06:29:58.769Z,7.53
2022-10-28T06:32:47.084Z,6.43
2022-10-28T06:35:36.780Z,6.03
2022-10-28T06:38:25.287Z,6.82
2022-10-28T06:41:13.685Z,5.50
2022-10-28T06:44:02.392Z,5.75
2022-10-28T06:46:52.313Z,6.10
2022-10-28T06:49:40.657Z,5.97
2022-10-28T06:52:30.415Z,5.70
2022-10-28T06:55:19.078Z,5.53
2022-10-28T06:58:07.472Z,6.10
2022-10-28T07:00:55.813Z,5.60
2022-10-28T07:03:44.169Z,7.32
2022-10-28T07:06:32.488Z,5.80
2022-10-28T07:09:22.281Z,7.03
2022-10-28T07:12:10.955Z,6.20
2022-10-28T07:14:59.348Z,6.18
2022-10-28T07:17:53.794Z,7.25
2022-10-28T07:20:42.139Z,6.65
2022-10-28T07:23:32.513Z,6.50
2022-10-28T07:26:22.261Z,6.40
2022-10-28T07:29:10.562Z,6.65
2022-10-28T07:31:58.866Z,6.63
2022-10-28T07:34:47.195Z,6.05
2022-10-28T07:37:35.597Z,6.60
2022-10-28T07:40:25.059Z,6.25
2022-10-28T07:43:14.783Z,6.65
2022-10-28T07:46:03.117Z,5.53
2022-10-28T07:48:51.466Z,6.07
2022-10-28T07:51:40.905Z,5.95
2022-10-28T07:54:31.929Z,6.55
2022-10-28T07:57:20.697Z,5.70
2022-10-28T08:00:11.462Z,6.10
2022-10-28T08:02:59.764Z,6.80
2022-10-28T08:05:48.411Z,6.57
2022-10-28T08:08:37.005Z,6.53
2022-10-28T08:11:25.566Z,6.88
2022-10-28T08:14:13.876Z,6.47
2022-10-28T08:17:03.721Z,6.20
2022-10-28T08:19:52.036Z,5.78
2022-10-28T08:22:40.653Z,5.63
2022-10-28T08:25:28.955Z,5.70
2022-10-28T08:28:17.831Z,5.57
2022-10-28T08:31:09.568Z,5.55
2022-10-28T08:33:59.642Z,5.30
2022-10-28T08:36:48.039Z,5.28
2022-10-28T08:39:36.412Z,5.55
2022-10-28T08:42:36.370Z,5.55
2022-10-28T08:45:41.423Z,5.93
2022-10-28T08:48:33.918Z,5.20
2022-10-28T08:51:29.921Z,5.90
2022-10-28T08:54:22.766Z,5.72
2022-10-28T08:57:18.189Z,5.15
2022-10-28T09:00:09.561Z,5.47
2022-10-28T09:03:20.541Z,6.10
2022-10-28T09:08:59.344Z,5.10
2022-10-28T09:12:00.349Z,5.32
2022-10-28T09:15:05.167Z,5.43
2022-10-28T09:17:55.988Z,4.45
2022-10-28T09:20:53.299Z,5.18
2022-10-28T09:23:50.006Z,5.55
2022-10-28T09:26:48.195Z,5.18
2022-10-28T09:29:48.842Z,4.90
2022-10-28T09:32:46.426Z,4.40
2022-10-28T09:35:40.126Z,4.88
2022-10-28T09:38:31.603Z,4.85
2022-10-28T09:41:23.365Z,5.25
2022-10-28T09:44:19.926Z,5.70
2022-10-28T09:47:16.126Z,5.10
2022-10-28T09:50:14.040Z,4.80
2022-10-28T09:53:12.439Z,4.78
2022-10-28T09:56:00.870Z,4.85
2022-10-28T09:58:49.914Z,5.38
2022-10-28T10:01:41.634Z,4.35
2022-10-28T10:04:32.034Z,4.90
2022-10-28T10:07:37.376Z,4.70
2022-10-28T10:10:28.782Z,5.53
2022-10-28T10:13:20.887Z,5.00
2022-10-28T10:16:18.336Z,5.88
2022-10-28T10:19:10.998Z,5.10
2022-10-28T10:21:59.332Z,6.10
2022-10-28T10:24:47.630Z,4.97
2022-10-28T10:27:35.973Z,4.80
2022-10-28T10:30:27.190Z,4.25
2022-10-28T10:33:20.973Z,5.20
2022-10-28T10:36:17.413Z,5.22
2022-10-28T10:39:05.829Z,4.45
2022-10-28T10:41:56.374Z,3.97
2022-10-28T10:44:44.893Z,4.40
2022-10-28T10:47:33.221Z,4.80
2022-10-28T10:50:24.436Z,3.78
2022-10-28T10:53:22.179Z,4.20
2022-10-28T10:56:13.245Z,4.70
2022-10-28T10:59:04.461Z,4.00
2022-10-28T11:01:53.574Z,4.10
2022-10-28T11:04:42.062Z,4.63
2022-10-28T11:07:31.890Z,4.10
2022-10-28T11:10:27.247Z,4.43
2022-10-28T11:13:27.333Z,3.40
2022-10-28T11:16:21.966Z,4.50
2022-10-28T11:19:21.419Z,3.75
2022-10-28T11:22:25.418Z,4.38
2022-10-28T11:25:36.800Z,3.92
2022-10-28T11:28:57.501Z,3.75
2022-10-28T11:32:01.252Z,3.63
2022-10-28T11:35:05.151Z,3.58
2022-10-28T11:38:04.334Z,4.28
2022-10-28T11:41:11.105Z,3.92
2022-10-28T11:44:04.906Z,3.58
2022-10-28T11:47:05.124Z,3.72
2022-10-28T11:50:23.859Z,3.97
2022-10-28T11:53:46.036Z,3.55
2022-10-28T11:56:40.582Z,3.30
2022-10-28T11:59:44.474Z,3.78
2022-10-28T12:02:56.305Z,3.40
2022-10-28T12:05:48.549Z,3.10
2022-10-28T12:08:45.676Z,3.38
2022-10-28T12:11:49.982Z,3.55
2022-10-28T12:14:49.314Z,3.13
2022-10-28T12:17:45.821Z,2.92
2022-10-28T12:20:37.294Z,2.60
2022-10-28T12:23:27.595Z,3.00
2022-10-28T12:26:19.286Z,3.00
2022-10-28T12:29:17.426Z,2.67
2022-10-28T12:32:09.374Z,2.35
2022-10-28T12:35:03.905Z,2.22
2022-10-28T12:37:56.229Z,2.10
2022-10-28T12:40:51.877Z,2.60
2022-10-28T12:43:44.959Z,2.45
2022-10-28T12:49:45.560Z,2.42
2022-10-28T12:52:41.420Z,1.98
2022-10-28T12:55:38.394Z,2.28
2022-10-28T12:58:32.578Z,2.28
2022-10-28T13:01:24.404Z,2.22
2022-10-28T13:04:14.696Z,2.00
2022-10-28T13:07:27.697Z,2.72
2022-10-28T13:13:34.240Z,1.98
2022-10-28T13:16:47.080Z,2.38
2022-10-28T13:19:52.211Z,2.17
2022-10-28T13:23:10.358Z,2.33
2022-10-28T13:26:11.734Z,2.13
2022-10-28T13:29:03.004Z,2.28
2022-10-28T13:31:52.056Z,2.83
2022-10-28T13:34:42.307Z,2.53
2022-10-28T13:37:35.981Z,2.55
2022-10-28T13:41:03.094Z,2.80
2022-10-28T13:44:23.957Z,2.72
2022-10-28T13:47:30.982Z,2.10
2022-10-28T13:50:37.509Z,2.33
2022-10-28T13:53:55.451Z,2.08
2022-10-28T13:56:49.287Z,2.25
2022-10-28T13:59:51.320Z,2.20
2022-10-28T14:02:41.998Z,1.92
2022-10-28T14:05:53.760Z,2.28
2022-10-28T14:08:42.992Z,2.20
2022-10-28T14:11:32.587Z,2.45
2022-10-28T14:14:21.759Z,2.40
2022-10-28T14:17:21.448Z,2.55
2022-10-28T14:20:25.592Z,3.33
2022-10-28T14:24:06.752Z,2.78
2022-10-28T14:27:30.685Z,2.40
2022-10-28T14:30:25.613Z,2.30
2022-10-28T14:33:31.654Z,2.15
2022-10-28T14:36:31.240Z,2.42
2022-10-28T14:39:39.984Z,2.97
2022-10-28T14:42:46.038Z,3.00
2022-10-28T14:45:41.604Z,2.58
2022-10-28T14:48:52.296Z,2.72
2022-10-28T14:54:39.715Z,2.53
2022-10-28T14:57:33.648Z,3.00
2022-10-28T15:00:25.904Z,2.25
2022-10-28T15:03:14.598Z,2.45
2022-10-28T15:06:04.132Z,2.78
2022-10-28T15:08:53.273Z,2.38
2022-10-28T15:11:46.590Z,2.30
2022-10-28T15:14:37.942Z,2.65
2022-10-28T15:17:28.198Z,2.40
2022-10-28T15:20:24.417Z,2.67
2022-10-28T15:23:15.126Z,2.30
2022-10-28T15:26:07.782Z,3.17
2022-10-28T15:28:57.546Z,2.80
2022-10-28T15:32:12.634Z,2.97
2022-10-28T15:35:21.243Z,3.03
2022-10-28T15:38:35.985Z,2.85
2022-10-28T15:41:42.707Z,2.38
2022-10-28T15:44:37.898Z,2.75
2022-10-28T15:47:31.316Z,3.22
2022-10-28T15:50:27.386Z,3.00
2022-10-28T15:53:31.892Z,3.08
2022-10-28T15:56:23.257Z,2.60
2022-10-28T15:59:20.998Z,2.90
2022-10-28T16:02:41.328Z,3.15
2022-10-28T16:05:46.415Z,2.90
2022-10-28T16:08:35.397Z,3.00
2022-10-28T16:11:23.771Z,2.80
2022-10-28T16:14:33.297Z,2.75
2022-10-28T16:17:28.448Z,2.92
2022-10-28T16:20:21.657Z,2.63
2022-10-28T16:23:16.704Z,2.63
2022-10-28T16:26:05.499Z,2.60
2022-10-28T16:28:54.138Z,2.97
2022-10-28T16:31:42.908Z,2.58
2022-10-28T16:34:32.627Z,3.17
2022-10-28T16:37:27.060Z,2.47
2022-10-28T16:40:37.555Z,2.65
2022-10-28T16:43:26.207Z,3.33
2022-10-28T16:46:15.749Z,3.90
2022-10-28T16:49:04.161Z,3.53
2022-10-28T16:51:54.504Z,3.42
2022-10-28T16:54:42.967Z,2.72
2022-10-28T16:57:31.324Z,3.58
2022-10-28T17:00:20.488Z,3.22
2022-10-28T17:03:12.564Z,3.17
2022-10-28T17:06:00.895Z,2.88
2022-10-28T17:09:02.354Z,2.97
2022-10-28T17:11:51.063Z,3.08
2022-10-28T17:14:39.434Z,3.22
2022-10-28T17:17:27.827Z,2.33
2022-10-28T17:20:16.236Z,3.33
2022-10-28T17:23:05.712Z,2.58
2022-10-28T17:25:59.074Z,3.00
2022-10-28T17:28:52.903Z,2.65
2022-10-28T17:31:41.351Z,2.85
2022-10-28T17:34:29.771Z,2.97
2022-10-28T17:37:18.148Z,3.10
2022-10-28T17:40:08.278Z,3.00
2022-10-28T17:43:00.598Z,3.92
2022-10-28T17:45:48.946Z,2.70
2022-10-28T17:48:37.374Z,3.47
2022-10-28T17:51:25.917Z,2.95
2022-10-28T17:54:14.328Z,3.13
2022-10-28T17:57:02.732Z,4.15
2022-10-28T17:59:52.395Z,2.95
2022-10-28T18:02:41.165Z,2.85
2022-10-28T18:05:29.595Z,3.03
2022-10-28T18:08:17.923Z,4.07
2022-10-28T18:11:07.252Z,3.35
2022-10-28T18:13:56.547Z,3.15
2022-10-28T18:16:46.725Z,2.90
2022-10-28T18:19:35.054Z,4.05
2022-10-28T18:22:23.354Z,3.38
2022-10-28T18:25:11.687Z,3.03
2022-10-28T18:27:59.994Z,3.13
2022-10-28T18:30:48.341Z,2.85
2022-10-28T18:33:38.116Z,3.17
2022-10-28T18:36:26.813Z,2.70
2022-10-28T18:39:15.157Z,3.13
2022-10-28T18:42:03.789Z,2.78
2022-10-28T18:44:58.347Z,3.40
2022-10-28T18:47:46.710Z,2.75
2022-10-28T18:50:36.469Z,3.00
2022-10-28T18:53:25.016Z,3.33
2022-10-28T18:56:16.149Z,2.90
2022-10-28T18:59:05.703Z,3.38
2022-10-28T19:01:54.152Z,2.90
2022-10-28T19:04:42.507Z,3.10
2022-10-28T19:07:33.164Z,3.75
2022-10-28T19:10:21.469Z,3.60
2022-10-28T19:13:09.807Z,3.83
2022-10-28T19:15:59.570Z,3.63
2022-10-28T19:18:49.197Z,2.80
2022-10-28T19:21:37.513Z,3.03
2022-10-28T19:24:27.726Z,3.38
2022-10-28T19:27:16.027Z,3.33
2022-10-28T19:30:07.790Z,2.78
2022-10-28T19:32:59.000Z,3.35
2022-10-28T19:35:47.345Z,3.65
2022-10-28T19:38:37.565Z,3.58
2022-10-28T19:41:29.296Z,3.15
2022-10-28T19:44:17.738Z,2.95
2022-10-28T19:47:06.121Z,3.10
2022-10-28T19:49:54.463Z,2.72
2022-10-28T19:52:43.901Z,3.13
2022-10-28T19:55:32.320Z,3.05
2022-10-28T19:58:22.057Z,3.83
2022-10-28T20:01:12.404Z,3.25
2022-10-28T20:04:01.006Z,3.95
2022-10-28T20:06:49.307Z,3.28
2022-10-28T20:09:37.657Z,4.05
2022-10-28T20:12:25.988Z,3.58
2022-10-28T20:15:15.728Z,3.33
2022-10-28T20:18:04.124Z,3.17
2022-10-28T20:20:52.459Z,4.00
2022-10-28T20:23:40.862Z,3.72
2022-10-28T20:26:31.019Z,3.08
2022-10-28T20:29:19.362Z,3.30
2022-10-28T20:32:09.047Z,3.75
2022-10-28T20:34:57.723Z,3.58
2022-10-28T20:37:46.390Z,2.83
2022-10-28T20:40:35.589Z,3.33
2022-10-28T20:43:26.113Z,3.13
2022-10-28T20:46:19.737Z,3.97
2022-10-28T20:49:10.627Z,4.20
2022-10-28T20:51:58.960Z,3.83
2022-10-28T20:54:47.397Z,3.78
2022-10-28T20:57:36.133Z,3.65
2022-10-28T21:00:24.478Z,3.78
2022-10-28T21:03:12.836Z,3.90
2022-10-28T21:06:03.302Z,3.50
2022-10-28T21:08:52.024Z,3.97
2022-10-28T21:11:40.363Z,4.18
2022-10-28T21:14:30.698Z,3.40
2022-10-28T21:17:19.078Z,3.78
2022-10-28T21:20:08.775Z,3.60
2022-10-28T21:23:00.049Z,3.40
2022-10-28T21:25:53.881Z,3.90
2022-10-28T21:28:42.485Z,3.58
2022-10-28T21:31:30.795Z,3.60
2022-10-28T21:34:19.129Z,3.40
2022-10-28T21:37:07.464Z,3.22
2022-10-28T21:40:00.952Z,3.08
2022-10-28T21:42:50.276Z,3.33
2022-10-28T21:45:38.605Z,3.40
2022-10-28T21:48:27.703Z,3.83
2022-10-28T21:51:17.840Z,3.22
2022-10-28T21:54:06.409Z,2.88
2022-10-28T21:56:56.198Z,4.22
2022-10-28T21:59:44.501Z,3.33
2022-10-28T22:02:32.991Z,3.47
2022-10-28T22:05:21.322Z,3.50
2022-10-28T22:08:09.659Z,3.25
2022-10-28T22:11:02.541Z,4.47
2022-10-28T22:13:57.236Z,3.50
2022-10-28T22:16:45.578Z,4.03
2022-10-28T22:19:33.904Z,3.45
2022-10-28T22:22:22.225Z,3.83
2022-10-28T22:25:11.132Z,4.18
2022-10-28T22:27:59.460Z,3.35
2022-10-28T22:30:49.125Z,4.43
2022-10-28T22:33:38.112Z,3.80
2022-10-28T22:36:28.044Z,3.80
2022-10-28T22:39:16.335Z,4.70
2022-10-28T22:42:04.712Z,3.78
2022-10-28T22:44:53.044Z,3.50
2022-10-28T22:47:42.702Z,3.80
2022-10-28T22:50:31.058Z,3.45
2022-10-28T22:53:19.986Z,3.65
2022-10-28T22:56:10.313Z,4.10
2022-10-28T22:59:01.044Z,5.50
2022-10-28T23:04:39.053Z,4.05
2022-10-28T23:07:27.333Z,4.68
2022-10-28T23:10:15.883Z,4.32
2022-10-28T23:13:04.302Z,4.00
2022-10-28T23:15:53.605Z,3.80
2022-10-28T23:18:43.127Z,4.47
2022-10-28T23:21:32.821Z,4.07
2022-10-28T23:24:21.151Z,3.85
2022-10-28T23:27:09.489Z,4.63
2022-10-28T23:29:57.800Z,4.32
2022-10-28T23:32:46.241Z,4.05
2022-10-28T23:35:34.567Z,4.00
2022-10-28T23:38:25.426Z,4.28
2022-10-28T23:44:04.038Z,4.22
2022-10-28T23:46:52.332Z,3.97
2022-10-28T23:49:40.656Z,4.50
2022-10-28T23:52:29.024Z,4.70
2022-10-28T23:55:18.797Z,4.95
2022-10-28T23:58:07.131Z,4.53
